createdAt,value
2023-03-16T00:02:11.776Z,99149.94
2023-03-16T00:04:38.879Z,99151.31
2023-03-16T00:07:09.819Z,99154.81
2023-03-16T00:09:41.410Z,99155.50
2023-03-16T00:12:19.483Z,99155.97
2023-03-16T00:14:49.295Z,99145.59
2023-03-16T00:17:19.876Z,99158.19
2023-03-16T00:20:16.969Z,99157.59
2023-03-16T00:22:45.003Z,99153.06
2023-03-16T00:25:14.708Z,99156.31
2023-03-16T00:27:41.632Z,99155.63
2023-03-16T00:30:09.555Z,99158.88
2023-03-16T00:32:37.997Z,99157.50
2023-03-16T00:35:09.208Z,99156.91
2023-03-16T00:37:37.954Z,99163.50
2023-03-16T00:40:07.828Z,99162.72
2023-03-16T00:42:34.731Z,99163.97
2023-03-16T00:45:02.192Z,99151.44
2023-03-16T00:47:34.164Z,99144.47
2023-03-16T00:50:02.424Z,99144.47
2023-03-16T00:52:30.058Z,99141.22
2023-03-16T00:54:57.154Z,99131.78
2023-03-16T00:57:25.981Z,99139.22
2023-03-16T00:59:53.016Z,99138.16
2023-03-16T01:02:23.360Z,99134.31
2023-03-16T01:04:52.502Z,99145.97
2023-03-16T01:07:19.722Z,99139.47
2023-03-16T01:09:48.558Z,99147.56
2023-03-16T01:12:19.159Z,99131.78
2023-03-16T01:14:47.109Z,99132.00
2023-03-16T01:17:16.387Z,99123.31
2023-03-16T01:19:43.906Z,99122.25
2023-03-16T01:22:12.002Z,99130.03
2023-03-16T01:24:40.601Z,99126.31
2023-03-16T01:27:08.918Z,99125.25
2023-03-16T01:29:38.795Z,99117.03
2023-03-16T01:32:07.473Z,99130.63
2023-03-16T01:34:35.132Z,99123.31
2023-03-16T01:37:02.056Z,99124.56
2023-03-16T01:39:28.795Z,99124.81
2023-03-16T01:41:55.637Z,99118.75
2023-03-16T01:44:32.898Z,99129.00
2023-03-16T01:47:00.000Z,99114.22
2023-03-16T01:49:36.360Z,99108.66
2023-03-16T01:52:12.551Z,99111.91
2023-03-16T01:54:49.840Z,99104.34
2023-03-16T01:57:22.258Z,99090.97
2023-03-16T01:59:54.918Z,99085.84
2023-03-16T02:02:25.221Z,99088.19
2023-03-16T02:05:33.289Z,99095.00
2023-03-16T02:08:02.706Z,99094.19
2023-03-16T02:10:31.121Z,99099.41
2023-03-16T02:12:58.722Z,99099.34
2023-03-16T02:15:27.213Z,99108.28
2023-03-16T02:18:00.082Z,99097.59
2023-03-16T02:20:53.651Z,99100.13
2023-03-16T02:23:24.003Z,99107.69
2023-03-16T02:26:10.297Z,99101.91
2023-03-16T02:29:31.964Z,99095.84
2023-03-16T02:32:02.905Z,99087.81
2023-03-16T02:34:30.257Z,99097.28
2023-03-16T02:36:59.183Z,99088.34
2023-03-16T02:39:26.112Z,99077.16
2023-03-16T02:41:53.284Z,99075.88
2023-03-16T02:44:37.483Z,99070.69
2023-03-16T02:47:14.506Z,99074.47
2023-03-16T02:49:45.372Z,99063.66
2023-03-16T02:52:13.249Z,99061.44
2023-03-16T02:54:40.102Z,99064.97
2023-03-16T02:57:07.989Z,99050.97
2023-03-16T02:59:34.820Z,99050.59
2023-03-16T03:02:01.764Z,99056.69
2023-03-16T03:04:28.606Z,99058.38
2023-03-16T03:06:55.454Z,99064.66
2023-03-16T03:09:22.341Z,99064.03
2023-03-16T03:11:50.493Z,99058.47
2023-03-16T03:14:17.279Z,99052.66
2023-03-16T03:16:46.646Z,99052.19
2023-03-16T03:19:14.042Z,99050.41
2023-03-16T03:21:41.577Z,99037.88
2023-03-16T03:24:09.744Z,99043.44
2023-03-16T03:26:39.622Z,99037.88
2023-03-16T03:29:06.534Z,99039.41
2023-03-16T03:31:33.349Z,99036.28
2023-03-16T03:34:06.378Z,99024.56
2023-03-16T03:36:34.958Z,99029.13
2023-03-16T03:39:05.024Z,99030.66
2023-03-16T03:41:33.345Z,99021.94
2023-03-16T03:44:00.984Z,99012.38
2023-03-16T03:46:27.927Z,99022.63
2023-03-16T03:48:54.939Z,99020.63
2023-03-16T03:51:21.759Z,99027.50
2023-03-16T03:53:48.607Z,99025.66
2023-03-16T03:56:15.394Z,99027.38
2023-03-16T03:58:42.124Z,99027.63
2023-03-16T04:01:08.904Z,99022.50
2023-03-16T04:03:35.743Z,99014.94
2023-03-16T04:06:02.603Z,99016.69
2023-03-16T04:08:29.638Z,99016.91
2023-03-16T04:10:56.532Z,99016.31
2023-03-16T04:13:23.344Z,99012.00
2023-03-16T04:15:56.983Z,99016.44
2023-03-16T04:18:24.189Z,99011.44
2023-03-16T04:20:53.163Z,99019.69
2023-03-16T04:23:21.974Z,99021.06
2023-03-16T04:25:48.850Z,99016.31
2023-03-16T04:28:18.118Z,99006.00
2023-03-16T04:30:44.992Z,99002.75
2023-03-16T04:33:11.795Z,99003.09
2023-03-16T04:35:39.119Z,99003.00
2023-03-16T04:38:06.068Z,99000.31
2023-03-16T04:40:32.884Z,98997.66
2023-03-16T04:42:59.712Z,98997.53
2023-03-16T04:45:26.697Z,98999.38
2023-03-16T04:47:53.502Z,99003.69
2023-03-16T04:50:22.314Z,98989.75
2023-03-16T04:52:49.186Z,98992.88
2023-03-16T04:55:15.978Z,98993.47
2023-03-16T04:57:42.774Z,98995.22
2023-03-16T05:00:19.029Z,98994.97
2023-03-16T05:02:48.177Z,98995.22
2023-03-16T05:05:15.911Z,98990.09
2023-03-16T05:07:44.128Z,98990.44
2023-03-16T05:10:16.132Z,98999.16
2023-03-16T05:12:42.938Z,98995.44
2023-03-16T05:15:10.705Z,99000.78
2023-03-16T05:17:37.893Z,99001.03
2023-03-16T05:20:08.903Z,98993.59
2023-03-16T05:22:35.757Z,98989.75
2023-03-16T05:25:04.623Z,98990.09
2023-03-16T05:27:31.524Z,98995.69
2023-03-16T05:29:58.276Z,98993.25
2023-03-16T05:32:25.186Z,98989.16
2023-03-16T05:34:53.236Z,98984.06
2023-03-16T05:37:20.856Z,98986.72
2023-03-16T05:39:47.794Z,98981.97
2023-03-16T05:42:14.580Z,98979.41
2023-03-16T05:44:41.492Z,98983.00
2023-03-16T05:47:08.498Z,98984.53
2023-03-16T05:49:35.366Z,98981.03
2023-03-16T05:52:02.375Z,98980.09
2023-03-16T05:54:29.253Z,98971.50
2023-03-16T05:56:56.047Z,98975.34
2023-03-16T05:59:22.795Z,98972.22
2023-03-16T06:01:50.218Z,98972.44
2023-03-16T06:04:17.239Z,98970.22
2023-03-16T06:06:44.255Z,98971.03
2023-03-16T06:09:11.086Z,98976.63
2023-03-16T06:11:38.065Z,98974.31
2023-03-16T06:14:05.169Z,98971.50
2023-03-16T06:16:32.144Z,98976.72
2023-03-16T06:18:59.941Z,98974.41
2023-03-16T06:21:27.271Z,98980.34
2023-03-16T06:23:54.366Z,98981.72
2023-03-16T06:26:21.444Z,98983.72
2023-03-16T06:28:49.020Z,98980.91
2023-03-16T06:31:22.061Z,98972.69
2023-03-16T06:33:48.919Z,98978.72
2023-03-16T06:36:16.122Z,98980.66
2023-03-16T06:38:43.316Z,98977.16
2023-03-16T06:41:10.173Z,98983.78
2023-03-16T06:43:37.046Z,98978.53
2023-03-16T06:46:04.725Z,98975.06
2023-03-16T06:48:31.608Z,98976.91
2023-03-16T06:50:58.476Z,98979.56
2023-03-16T06:53:25.294Z,98986.81
2023-03-16T06:55:52.089Z,98973.63
2023-03-16T06:58:18.956Z,98972.09
2023-03-16T07:00:45.840Z,98974.88
2023-03-16T07:03:14.176Z,98971.47
2023-03-16T07:05:40.997Z,98977.84
2023-03-16T07:08:07.915Z,98977.47
2023-03-16T07:10:38.019Z,98977.00
2023-03-16T07:13:04.775Z,98969.53
2023-03-16T07:15:31.912Z,98979.44
2023-03-16T07:17:58.618Z,98974.41
2023-03-16T07:20:26.924Z,98976.69
2023-03-16T07:22:53.904Z,98977.63
2023-03-16T07:25:21.453Z,98986.06
2023-03-16T07:27:51.106Z,98985.91
2023-03-16T07:30:18.769Z,98984.13
2023-03-16T07:32:46.003Z,98979.41
2023-03-16T07:35:13.938Z,98983.66
2023-03-16T07:37:40.783Z,98977.41
2023-03-16T07:40:09.178Z,98974.56
2023-03-16T07:42:36.815Z,98978.47
2023-03-16T07:45:05.667Z,98972.91
2023-03-16T07:47:33.775Z,98990.47
2023-03-16T07:50:01.211Z,98982.25
2023-03-16T07:52:28.369Z,98987.22
2023-03-16T07:54:55.790Z,98990.31
2023-03-16T07:57:22.754Z,98989.72
2023-03-16T07:59:50.055Z,98983.00
2023-03-16T08:02:19.917Z,98986.41
2023-03-16T08:04:47.436Z,98987.41
2023-03-16T08:07:16.084Z,98985.69
2023-03-16T08:09:43.681Z,98978.38
2023-03-16T08:12:11.846Z,98979.63
2023-03-16T08:14:39.185Z,98976.84
2023-03-16T08:17:09.593Z,98975.31
2023-03-16T08:19:36.360Z,98970.25
2023-03-16T08:22:03.651Z,98960.09
2023-03-16T08:24:32.689Z,98959.44
2023-03-16T08:27:00.996Z,98952.00
2023-03-16T08:29:34.319Z,98949.13
2023-03-16T08:32:01.885Z,98944.91
2023-03-16T08:34:28.807Z,98953.53
2023-03-16T08:36:55.821Z,98953.25
2023-03-16T08:39:22.682Z,98952.22
2023-03-16T08:41:49.559Z,98961.09
2023-03-16T08:44:17.367Z,98967.84
2023-03-16T08:46:47.219Z,98970.78
2023-03-16T08:49:14.781Z,98961.34
2023-03-16T08:51:44.468Z,98960.69
2023-03-16T08:54:12.403Z,98953.09
2023-03-16T08:56:39.332Z,98953.09
2023-03-16T08:59:06.613Z,98952.22
2023-03-16T09:01:34.533Z,98946.81
2023-03-16T09:04:01.290Z,98955.34
2023-03-16T09:06:28.759Z,98967.47
2023-03-16T09:08:56.628Z,98959.75
2023-03-16T09:11:23.668Z,98965.66
2023-03-16T09:13:52.893Z,98952.88
2023-03-16T09:16:21.071Z,98951.16
2023-03-16T09:18:48.039Z,98941.72
2023-03-16T09:21:14.886Z,98948.50
2023-03-16T09:23:42.858Z,98947.97
2023-03-16T09:26:12.370Z,98944.75
2023-03-16T09:28:42.094Z,98935.69
2023-03-16T09:31:16.521Z,98929.34
2023-03-16T09:33:43.521Z,98936.75
2023-03-16T09:36:13.707Z,98941.41
2023-03-16T09:38:42.239Z,98932.78
2023-03-16T09:41:35.260Z,98937.47
2023-03-16T09:44:23.632Z,98939.16
2023-03-16T09:46:51.667Z,98941.38
2023-03-16T09:49:36.093Z,98941.31
2023-03-16T09:52:30.151Z,98935.06
2023-03-16T09:55:07.982Z,98938.44
2023-03-16T09:57:41.732Z,98944.31
2023-03-16T10:00:41.834Z,98936.53
2023-03-16T10:03:29.682Z,98922.16
2023-03-16T10:06:02.096Z,98931.03
2023-03-16T10:08:43.613Z,98929.78
2023-03-16T10:11:34.244Z,98926.63
2023-03-16T10:14:49.442Z,98917.81
2023-03-16T10:17:38.561Z,98910.59
2023-03-16T10:20:14.972Z,98908.97
2023-03-16T10:22:47.915Z,98912.25
2023-03-16T10:25:42.892Z,98903.41
2023-03-16T10:28:24.120Z,98905.31
2023-03-16T10:30:55.419Z,98902.72
2023-03-16T10:33:27.231Z,98911.75
2023-03-16T10:36:21.850Z,98899.78
2023-03-16T10:39:00.007Z,98887.56
2023-03-16T10:41:46.796Z,98879.56
2023-03-16T10:44:15.639Z,98885.50
2023-03-16T10:47:00.425Z,98892.97
2023-03-16T10:49:49.017Z,98886.34
2023-03-16T10:52:45.358Z,98887.72
2023-03-16T10:55:23.313Z,98891.50
2023-03-16T10:57:55.065Z,98903.03
2023-03-16T11:00:30.941Z,98894.47
2023-03-16T11:03:01.149Z,98902.69
2023-03-16T11:05:34.678Z,98904.69
2023-03-16T11:08:32.785Z,98898.91
2023-03-16T11:11:27.200Z,98882.63
2023-03-16T11:13:59.929Z,98889.88
2023-03-16T11:16:57.933Z,98884.75
2023-03-16T11:19:38.676Z,98882.50
2023-03-16T11:22:25.301Z,98874.13
2023-03-16T11:25:07.054Z,98866.59
2023-03-16T11:27:40.520Z,98859.53
2023-03-16T11:30:35.224Z,98857.34
2023-03-16T11:33:02.090Z,98849.06
2023-03-16T11:35:59.356Z,98832.81
2023-03-16T11:38:45.027Z,98839.56
2023-03-16T11:41:25.611Z,98841.84
2023-03-16T11:43:56.777Z,98840.13
2023-03-16T11:46:33.503Z,98838.47
2023-03-16T11:49:21.515Z,98829.22
2023-03-16T11:51:59.496Z,98839.44
2023-03-16T11:54:55.062Z,98845.72
2023-03-16T11:57:46.729Z,98845.00
2023-03-16T12:00:44.924Z,98835.00
2023-03-16T12:03:50.158Z,98818.47
2023-03-16T12:06:43.339Z,98808.03
2023-03-16T12:09:43.317Z,98823.13
2023-03-16T12:12:34.417Z,98815.34
2023-03-16T12:15:38.392Z,98814.31
2023-03-16T12:18:54.464Z,98807.63
2023-03-16T12:21:42.161Z,98811.63
2023-03-16T12:24:20.259Z,98806.75
2023-03-16T12:26:49.475Z,98807.25
2023-03-16T12:29:26.277Z,98811.53
2023-03-16T12:32:26.443Z,98803.25
2023-03-16T12:35:34.998Z,98796.00
2023-03-16T12:38:22.650Z,98796.38
2023-03-16T12:41:00.043Z,98787.94
2023-03-16T12:43:53.608Z,98779.72
2023-03-16T12:46:47.795Z,98785.75
2023-03-16T12:49:16.607Z,98780.72
2023-03-16T12:51:44.082Z,98777.28
2023-03-16T12:54:25.698Z,98768.34
2023-03-16T12:57:06.826Z,98765.75
2023-03-16T12:59:47.102Z,98773.22
2023-03-16T13:02:26.244Z,98770.38
2023-03-16T13:05:13.164Z,98757.63
2023-03-16T13:08:03.490Z,98769.28
2023-03-16T13:10:31.342Z,98776.25
2023-03-16T13:13:13.740Z,98761.91
2023-03-16T13:15:44.235Z,98763.00
2023-03-16T13:18:16.964Z,98742.72
2023-03-16T13:20:58.944Z,98747.94
2023-03-16T13:23:52.115Z,98755.56
2023-03-16T13:26:36.157Z,98745.16
2023-03-16T13:29:27.756Z,98735.56
2023-03-16T13:32:02.224Z,98733.31
2023-03-16T13:34:35.245Z,98725.78
2023-03-16T13:37:02.431Z,98727.59
2023-03-16T13:39:32.128Z,98726.47
2023-03-16T13:42:22.246Z,98719.44
2023-03-16T13:44:53.880Z,98714.84
2023-03-16T13:47:21.460Z,98709.09
2023-03-16T13:49:54.626Z,98706.50
2023-03-16T13:52:33.282Z,98707.03
2023-03-16T13:55:16.158Z,98710.41
2023-03-16T13:57:45.253Z,98718.53
2023-03-16T14:00:25.275Z,98699.72
2023-03-16T14:02:57.188Z,98701.72
2023-03-16T14:05:33.075Z,98694.19
2023-03-16T14:08:04.808Z,98684.47
2023-03-16T14:10:36.757Z,98682.19
2023-03-16T14:13:30.353Z,98675.31
2023-03-16T14:16:01.395Z,98675.47
2023-03-16T14:19:01.935Z,98667.22
2023-03-16T14:21:34.251Z,98662.03
2023-03-16T14:24:07.840Z,98666.38
2023-03-16T14:26:46.290Z,98663.94
2023-03-16T14:29:31.437Z,98658.75
2023-03-16T14:32:00.007Z,98661.06
2023-03-16T14:34:42.061Z,98665.34
2023-03-16T14:37:19.326Z,98659.28
2023-03-16T14:39:59.335Z,98653.81
2023-03-16T14:42:31.522Z,98657.38
2023-03-16T14:45:02.406Z,98648.47
2023-03-16T14:47:33.531Z,98649.81
2023-03-16T14:50:08.859Z,98646.28
2023-03-16T14:52:37.143Z,98637.84
2023-03-16T14:55:15.241Z,98641.22
2023-03-16T14:57:45.058Z,98636.59
2023-03-16T15:00:16.619Z,98639.66
2023-03-16T15:02:54.388Z,98629.22
2023-03-16T15:05:42.415Z,98633.41
2023-03-16T15:08:37.162Z,98627.13
2023-03-16T15:11:06.893Z,98634.00
2023-03-16T15:13:40.073Z,98630.50
2023-03-16T15:16:11.894Z,98633.28
2023-03-16T15:18:41.794Z,98635.41
2023-03-16T15:21:16.423Z,98635.81
2023-03-16T15:23:45.244Z,98624.56
2023-03-16T15:26:16.593Z,98626.22
2023-03-16T15:28:43.373Z,98630.94
2023-03-16T15:31:17.232Z,98624.19
2023-03-16T15:33:45.510Z,98631.78
2023-03-16T15:36:18.164Z,98635.00
2023-03-16T15:38:49.149Z,98628.59
2023-03-16T15:41:17.124Z,98630.22
2023-03-16T15:43:46.238Z,98622.69
2023-03-16T15:46:14.704Z,98632.16
2023-03-16T15:48:41.651Z,98629.16
2023-03-16T15:51:25.600Z,98626.94
2023-03-16T15:54:01.782Z,98629.03
2023-03-16T15:56:41.194Z,98628.56
2023-03-16T15:59:18.566Z,98626.38
2023-03-16T16:01:47.830Z,98626.19
2023-03-16T16:04:23.511Z,98623.94
2023-03-16T16:06:55.035Z,98617.56
2023-03-16T16:09:22.732Z,98615.00
2023-03-16T16:11:50.413Z,98617.91
2023-03-16T16:14:24.855Z,98624.97
2023-03-16T16:16:54.326Z,98617.44
2023-03-16T16:19:23.763Z,98610.72
2023-03-16T16:21:51.006Z,98603.03
2023-03-16T16:24:18.386Z,98600.47
2023-03-16T16:26:53.331Z,98608.19
2023-03-16T16:29:34.104Z,98589.75
2023-03-16T16:32:05.406Z,98596.63
2023-03-16T16:34:32.211Z,98601.59
2023-03-16T16:36:58.987Z,98601.94
2023-03-16T16:39:27.453Z,98600.81
2023-03-16T16:41:56.334Z,98591.84
2023-03-16T16:44:30.450Z,98593.91
2023-03-16T16:46:59.767Z,98590.25
2023-03-16T16:49:30.637Z,98583.03
2023-03-16T16:51:59.261Z,98588.81
2023-03-16T16:54:30.137Z,98586.88
2023-03-16T16:57:00.214Z,98584.16
2023-03-16T16:59:36.792Z,98578.34
2023-03-16T17:02:23.350Z,98578.84
2023-03-16T17:04:50.801Z,98585.56
2023-03-16T17:07:17.960Z,98588.09
2023-03-16T17:09:45.115Z,98583.91
2023-03-16T17:12:21.677Z,98576.38
2023-03-16T17:14:50.401Z,98583.38
2023-03-16T17:17:18.879Z,98578.56
2023-03-16T17:19:48.369Z,98582.41
2023-03-16T17:22:25.761Z,98587.31
2023-03-16T17:24:53.919Z,98583.13
2023-03-16T17:27:28.526Z,98588.81
2023-03-16T17:29:57.634Z,98588.66
2023-03-16T17:32:25.436Z,98596.13
2023-03-16T17:34:52.318Z,98588.13
2023-03-16T17:37:22.041Z,98591.91
2023-03-16T17:39:49.390Z,98590.88
2023-03-16T17:42:19.410Z,98591.94
2023-03-16T17:44:50.690Z,98589.97
2023-03-16T17:47:27.789Z,98587.81
2023-03-16T17:49:55.228Z,98591.25
2023-03-16T17:52:28.764Z,98574.09
2023-03-16T17:54:56.050Z,98581.88
2023-03-16T17:57:31.043Z,98577.78
2023-03-16T18:00:00.792Z,98579.13
2023-03-16T18:03:00.851Z,98574.31
2023-03-16T18:05:34.691Z,98576.72
2023-03-16T18:08:16.186Z,98571.50
2023-03-16T18:10:49.530Z,98578.94
2023-03-16T18:13:41.556Z,98573.22
2023-03-16T18:16:09.076Z,98566.59
2023-03-16T18:18:42.789Z,98567.69
2023-03-16T18:21:23.404Z,98568.41
2023-03-16T18:23:53.006Z,98565.28
2023-03-16T18:26:23.891Z,98565.41
2023-03-16T18:28:54.215Z,98563.06
2023-03-16T18:31:26.318Z,98567.19
2023-03-16T18:34:04.465Z,98558.75
2023-03-16T18:36:40.973Z,98562.88
2023-03-16T18:39:20.128Z,98558.66
2023-03-16T18:41:47.152Z,98564.28
2023-03-16T18:44:26.026Z,98557.94
2023-03-16T18:47:02.635Z,98553.63
2023-03-16T18:49:36.604Z,98558.03
2023-03-16T18:52:12.726Z,98556.22
2023-03-16T18:54:39.898Z,98558.22
2023-03-16T18:57:20.348Z,98555.28
2023-03-16T18:59:51.677Z,98547.84
2023-03-16T19:02:50.231Z,98551.38
2023-03-16T19:05:21.792Z,98540.59
2023-03-16T19:07:54.026Z,98538.50
2023-03-16T19:10:28.575Z,98534.88
2023-03-16T19:12:56.103Z,98535.47
2023-03-16T19:15:30.778Z,98535.47
2023-03-16T19:17:59.975Z,98542.09
2023-03-16T19:20:32.595Z,98539.72
2023-03-16T19:23:16.279Z,98546.97
2023-03-16T19:25:45.354Z,98538.63
2023-03-16T19:28:42.637Z,98542.16
2023-03-16T19:31:22.049Z,98538.00
2023-03-16T19:33:51.867Z,98535.38
2023-03-16T19:36:24.942Z,98533.69
2023-03-16T19:38:52.610Z,98532.13
2023-03-16T19:41:42.668Z,98524.50
2023-03-16T19:44:27.240Z,98526.34
2023-03-16T19:47:02.595Z,98523.31
2023-03-16T19:49:30.609Z,98519.41
2023-03-16T19:51:57.826Z,98522.03
2023-03-16T19:54:33.319Z,98530.47
2023-03-16T19:57:11.392Z,98528.25
2023-03-16T19:59:38.589Z,98539.19
2023-03-16T20:02:41.370Z,98528.44
2023-03-16T20:05:22.399Z,98525.94
2023-03-16T20:07:50.184Z,98526.75
2023-03-16T20:10:25.195Z,98526.75
2023-03-16T20:12:57.049Z,98532.25
2023-03-16T20:15:34.022Z,98529.03
2023-03-16T20:18:01.181Z,98521.50
2023-03-16T20:20:33.580Z,98522.09
2023-03-16T20:23:01.390Z,98521.59
2023-03-16T20:25:35.287Z,98521.25
2023-03-16T20:28:05.165Z,98523.44
2023-03-16T20:30:35.309Z,98516.53
2023-03-16T20:33:03.566Z,98507.97
2023-03-16T20:35:32.925Z,98513.19
2023-03-16T20:37:59.923Z,98515.16
2023-03-16T20:40:29.475Z,98497.91
2023-03-16T20:42:56.528Z,98498.22
2023-03-16T20:45:30.530Z,98510.16
2023-03-16T20:47:57.609Z,98507.53
2023-03-16T20:50:30.688Z,98516.75
2023-03-16T20:53:00.360Z,98512.50
2023-03-16T20:55:29.200Z,98507.88
2023-03-16T20:57:57.388Z,98503.81
2023-03-16T21:00:47.405Z,98504.09
2023-03-16T21:03:24.608Z,98498.25
2023-03-16T21:05:53.709Z,98505.84
2023-03-16T21:08:20.542Z,98504.56
2023-03-16T21:10:51.752Z,98509.13
2023-03-16T21:13:32.422Z,98508.03
2023-03-16T21:16:03.379Z,98496.13
2023-03-16T21:18:33.121Z,98496.56
2023-03-16T21:21:02.901Z,98490.97
2023-03-16T21:23:29.769Z,98496.28
2023-03-16T21:26:01.607Z,98495.78
2023-03-16T21:28:36.522Z,98497.97
2023-03-16T21:31:07.998Z,98492.56
2023-03-16T21:33:38.870Z,98495.31
2023-03-16T21:36:17.042Z,98497.50
2023-03-16T21:38:46.752Z,98493.91
2023-03-16T21:41:15.233Z,98494.22
2023-03-16T21:43:43.230Z,98492.88
2023-03-16T21:46:23.291Z,98493.72
2023-03-16T21:48:58.001Z,98492.06
2023-03-16T21:51:34.740Z,98489.91
2023-03-16T21:54:01.630Z,98485.00
2023-03-16T21:56:28.945Z,98478.88
2023-03-16T21:58:55.990Z,98487.56
2023-03-16T22:01:38.255Z,98485.25
2023-03-16T22:04:16.033Z,98482.53
2023-03-16T22:06:45.948Z,98475.44
2023-03-16T22:09:22.358Z,98480.84
2023-03-16T22:11:49.687Z,98477.56
2023-03-16T22:14:16.464Z,98478.06
2023-03-16T22:16:43.702Z,98476.22
2023-03-16T22:19:14.609Z,98480.41
2023-03-16T22:21:44.958Z,98461.19
2023-03-16T22:24:26.362Z,98469.38
2023-03-16T22:26:53.721Z,98472.66
2023-03-16T22:29:36.528Z,98472.16
2023-03-16T22:32:20.842Z,98473.56
2023-03-16T22:34:56.388Z,98463.59
2023-03-16T22:37:27.425Z,98466.09
2023-03-16T22:39:57.203Z,98456.66
2023-03-16T22:42:37.892Z,98450.81
2023-03-16T22:45:26.497Z,98451.06
2023-03-16T22:47:55.945Z,98441.03
2023-03-16T22:50:27.380Z,98451.06
2023-03-16T22:52:59.682Z,98438.84
2023-03-16T22:55:38.403Z,98448.03
2023-03-16T22:58:15.353Z,98446.94
2023-03-16T23:00:42.753Z,98438.72
2023-03-16T23:03:24.563Z,98434.44
2023-03-16T23:05:51.654Z,98429.94
2023-03-16T23:08:23.343Z,98435.59
2023-03-16T23:10:55.701Z,98428.09
2023-03-16T23:13:28.918Z,98433.28
2023-03-16T23:15:56.763Z,98432.47
2023-03-16T23:18:25.982Z,98424.66
2023-03-16T23:20:53.522Z,98430.13
2023-03-16T23:23:22.564Z,98419.75
2023-03-16T23:25:49.443Z,98422.94
2023-03-16T23:28:24.483Z,98421.66
2023-03-16T23:30:51.573Z,98424.63
2023-03-16T23:33:21.719Z,98422.22
2023-03-16T23:35:48.609Z,98421.97
2023-03-16T23:38:15.430Z,98422.50
2023-03-16T23:40:42.228Z,98423.06
2023-03-16T23:43:09.457Z,98425.03
2023-03-16T23:45:46.476Z,98424.22
2023-03-16T23:48:20.982Z,98415.91
2023-03-16T23:50:52.131Z,98413.84
2023-03-16T23:53:20.408Z,98398.50
2023-03-16T23:55:48.080Z,98392.31
2023-03-16T23:58:18.639Z,98385.09
